createdAt,value
2018-08-28T00:00:28.557Z,94159.41
2018-08-28T00:02:56.108Z,94165.44
2018-08-28T00:05:23.653Z,94163.52
2018-08-28T00:07:51.250Z,94165.28
2018-08-28T00:10:18.783Z,94164.12
2018-08-28T00:12:46.333Z,94162.52
2018-08-28T00:15:13.937Z,94161.33
2018-08-28T00:17:41.683Z,94162.01
2018-08-28T00:20:09.199Z,94168.56
2018-08-28T00:22:36.748Z,94169.14
2018-08-28T00:25:04.303Z,94171.66
2018-08-28T00:27:31.785Z,94174.44
2018-08-28T00:29:59.363Z,94175.90
2018-08-28T00:32:26.919Z,94179.73
2018-08-28T00:34:58.222Z,94172.63
2018-08-28T00:37:25.773Z,94180.33
2018-08-28T00:39:53.350Z,94173.23
2018-08-28T00:42:20.946Z,94178.27
2018-08-28T00:44:48.471Z,94181.88
2018-08-28T00:47:16.048Z,94179.16
2018-08-28T00:49:43.606Z,94178.41
2018-08-28T00:52:11.141Z,94187.67
2018-08-28T00:54:38.987Z,94188.73
2018-08-28T00:57:06.529Z,94192.32
2018-08-28T00:59:34.035Z,94191.38
2018-08-28T01:02:01.580Z,94184.89
2018-08-28T01:04:29.154Z,94183.09
2018-08-28T01:06:56.687Z,94182.64
2018-08-28T01:09:24.226Z,94184.85
2018-08-28T01:11:51.747Z,94196.05
2018-08-28T01:14:19.326Z,94193.89
2018-08-28T01:16:46.855Z,94190.88
2018-08-28T01:19:14.388Z,94191.45
2018-08-28T01:21:42.004Z,94192.41
2018-08-28T01:24:10.747Z,94192.92
2018-08-28T01:26:38.287Z,94186.91
2018-08-28T01:29:05.862Z,94191.15
2018-08-28T01:31:35.118Z,94195.27
2018-08-28T01:34:02.699Z,94189.97
2018-08-28T01:36:30.258Z,94186.42
2018-08-28T01:38:57.801Z,94192.37
2018-08-28T01:41:25.369Z,94189.52
2018-08-28T01:43:54.881Z,94182.48
2018-08-28T01:46:22.417Z,94181.12
2018-08-28T01:48:49.962Z,94181.07
2018-08-28T01:51:17.658Z,94178.78
2018-08-28T01:53:45.248Z,94173.19
2018-08-28T01:56:12.967Z,94177.09
2018-08-28T01:58:40.474Z,94178.48
2018-08-28T02:01:08.066Z,94177.66
2018-08-28T02:03:35.610Z,94181.54
2018-08-28T02:06:03.154Z,94176.09
2018-08-28T02:08:30.697Z,94180.91
2018-08-28T02:10:58.210Z,94173.39
2018-08-28T02:13:25.753Z,94171.86
2018-08-28T02:15:53.947Z,94172.72
2018-08-28T02:18:21.459Z,94171.94
2018-08-28T02:20:48.993Z,94173.23
2018-08-28T02:23:18.493Z,94179.19
2018-08-28T02:25:46.036Z,94184.94
2018-08-28T02:28:13.570Z,94179.54
2018-08-28T02:30:41.158Z,94177.02
2018-08-28T02:33:08.771Z,94177.50
2018-08-28T02:35:36.319Z,94176.38
2018-08-28T02:38:03.858Z,94171.23
2018-08-28T02:40:31.405Z,94174.25
2018-08-28T02:42:58.927Z,94165.61
2018-08-28T02:45:26.447Z,94169.69
2018-08-28T02:47:53.978Z,94174.30
2018-08-28T02:50:21.475Z,94166.67
2018-08-28T02:52:49.019Z,94160.56
2018-08-28T02:55:16.552Z,94168.80
2018-08-28T02:57:44.064Z,94167.59
2018-08-28T03:00:11.592Z,94166.06
2018-08-28T03:02:39.124Z,94165.63
2018-08-28T03:05:06.766Z,94165.45
2018-08-28T03:07:34.395Z,94165.23
2018-08-28T03:10:01.935Z,94170.56
2018-08-28T03:12:29.490Z,94167.14
2018-08-28T03:14:57.031Z,94170.39
2018-08-28T03:17:24.542Z,94164.77
2018-08-28T03:19:52.178Z,94169.87
2018-08-28T03:22:19.756Z,94163.25
2018-08-28T03:24:47.291Z,94163.92
2018-08-28T03:27:14.809Z,94170.70
2018-08-28T03:29:42.329Z,94176.47
2018-08-28T03:32:09.917Z,94176.34
2018-08-28T03:34:37.475Z,94176.64
2018-08-28T03:37:05.013Z,94178.14
2018-08-28T03:39:32.610Z,94180.70
2018-08-28T03:42:00.186Z,94184.39
2018-08-28T03:44:27.713Z,94182.47
2018-08-28T03:46:55.269Z,94186.90
2018-08-28T03:49:22.847Z,94185.45
2018-08-28T03:51:50.433Z,94185.98
2018-08-28T03:54:17.898Z,94190.86
2018-08-28T03:56:45.426Z,94191.20
2018-08-28T03:59:12.931Z,94192.92
2018-08-28T04:01:40.484Z,94196.36
2018-08-28T04:04:07.986Z,94195.98
2018-08-28T04:06:35.581Z,94194.77
2018-08-28T04:09:04.134Z,94194.58
2018-08-28T04:11:31.686Z,94196.22
2018-08-28T04:13:59.245Z,94194.78
2018-08-28T04:16:26.885Z,94191.14
2018-08-28T04:18:54.422Z,94200.68
2018-08-28T04:21:21.959Z,94201.88
2018-08-28T04:23:49.466Z,94205.13
2018-08-28T04:26:17.010Z,94203.08
2018-08-28T04:28:44.541Z,94206.33
2018-08-28T04:31:12.055Z,94204.71
2018-08-28T04:33:39.687Z,94202.25
2018-08-28T04:36:07.253Z,94211.32
2018-08-28T04:38:34.759Z,94214.45
2018-08-28T04:41:02.287Z,94210.00
2018-08-28T04:43:30.170Z,94210.42
2018-08-28T04:45:57.698Z,94209.59
2018-08-28T04:48:26.042Z,94210.41
2018-08-28T04:50:53.570Z,94212.64
2018-08-28T04:53:21.116Z,94213.26
2018-08-28T04:55:48.703Z,94215.45
2018-08-28T04:58:16.271Z,94219.09
2018-08-28T05:00:43.847Z,94217.28
2018-08-28T05:03:11.355Z,94219.97
2018-08-28T05:05:38.898Z,94222.19
2018-08-28T05:08:06.414Z,94215.66
2018-08-28T05:10:34.251Z,94215.94
2018-08-28T05:13:01.797Z,94224.72
2018-08-28T05:15:29.485Z,94219.31
2018-08-28T05:17:57.152Z,94220.47
2018-08-28T05:20:24.766Z,94218.89
2018-08-28T05:22:52.264Z,94221.63
2018-08-28T05:25:19.778Z,94227.03
2018-08-28T05:27:48.055Z,94224.59
2018-08-28T05:30:15.548Z,94225.83
2018-08-28T05:32:43.272Z,94226.45
2018-08-28T05:35:10.746Z,94227.45
2018-08-28T05:37:38.251Z,94233.94
2018-08-28T05:40:05.766Z,94229.02
2018-08-28T05:42:34.239Z,94230.44
2018-08-28T05:45:02.018Z,94231.32
2018-08-28T05:47:29.612Z,94229.63
2018-08-28T05:49:57.078Z,94235.16
2018-08-28T05:52:24.578Z,94230.00
2018-08-28T05:54:52.128Z,94232.86
2018-08-28T05:57:19.594Z,94234.58
2018-08-28T05:59:47.735Z,94234.58
2018-08-28T06:02:15.746Z,94236.87
2018-08-28T06:04:43.333Z,94237.75
2018-08-28T06:07:10.823Z,94236.13
2018-08-28T06:09:38.362Z,94231.45
2018-08-28T06:12:06.056Z,94228.31
2018-08-28T06:14:33.706Z,94225.66
2018-08-28T06:17:01.272Z,94230.84
2018-08-28T06:19:28.747Z,94234.13
2018-08-28T06:21:56.234Z,94238.89
2018-08-28T06:24:23.715Z,94236.80
2018-08-28T06:26:51.359Z,94241.69
2018-08-28T06:29:18.940Z,94236.05
2018-08-28T06:31:46.456Z,94240.56
2018-08-28T06:34:14.126Z,94229.15
2018-08-28T06:36:41.755Z,94226.25
2018-08-28T06:39:10.008Z,94227.29
2018-08-28T06:41:37.691Z,94228.44
2018-08-28T06:44:05.271Z,94224.13
2018-08-28T06:46:33.016Z,94218.80
2018-08-28T06:49:00.541Z,94215.50
2018-08-28T06:51:28.067Z,94216.53
2018-08-28T06:53:55.627Z,94224.41
2018-08-28T06:56:23.233Z,94221.52
2018-08-28T06:58:50.838Z,94219.70
2018-08-28T07:01:18.521Z,94222.09
2018-08-28T07:03:46.054Z,94214.07
2018-08-28T07:06:13.483Z,94214.44
2018-08-28T07:08:41.292Z,94215.69
2018-08-28T07:11:08.768Z,94209.93
2018-08-28T07:13:36.511Z,94206.16
2018-08-28T07:16:04.167Z,94207.48
2018-08-28T07:18:31.872Z,94207.83
2018-08-28T07:20:59.446Z,94207.04
2018-08-28T07:23:27.042Z,94204.31
2018-08-28T07:25:54.574Z,94206.22
2018-08-28T07:28:22.272Z,94203.85
2018-08-28T07:30:49.973Z,94201.94
2018-08-28T07:33:17.661Z,94203.36
2018-08-28T07:35:45.281Z,94198.61
2018-08-28T07:38:12.790Z,94200.63
2018-08-28T07:40:40.353Z,94199.25
2018-08-28T07:43:07.913Z,94193.98
2018-08-28T07:45:35.776Z,94194.26
2018-08-28T07:48:03.359Z,94202.66
2018-08-28T07:50:30.931Z,94198.42
2018-08-28T07:52:58.499Z,94196.92
2018-08-28T07:55:26.078Z,94191.61
2018-08-28T07:57:53.646Z,94195.37
2018-08-28T08:00:21.254Z,94200.28
2018-08-28T08:02:48.801Z,94198.56
2018-08-28T08:05:16.390Z,94203.53
2018-08-28T08:07:43.984Z,94208.48
2018-08-28T08:10:11.583Z,94212.84
2018-08-28T08:12:39.184Z,94210.60
2018-08-28T08:15:06.771Z,94208.58
2018-08-28T08:17:34.307Z,94209.98
2018-08-28T08:20:01.856Z,94204.20
2018-08-28T08:22:29.794Z,94208.66
2018-08-28T08:24:57.459Z,94200.81
2018-08-28T08:27:25.095Z,94204.08
2018-08-28T08:29:52.635Z,94207.53
2018-08-28T08:32:20.162Z,94211.44
2018-08-28T08:34:47.686Z,94204.08
2018-08-28T08:37:15.249Z,94212.94
2018-08-28T08:39:42.807Z,94214.15
2018-08-28T08:42:10.441Z,94213.06
2018-08-28T08:44:38.031Z,94208.31
2018-08-28T08:47:05.534Z,94211.64
2018-08-28T08:49:33.030Z,94210.91
2018-08-28T08:52:00.591Z,94200.45
2018-08-28T08:54:28.119Z,94194.94
2018-08-28T08:56:55.722Z,94196.98
2018-08-28T08:59:23.263Z,94200.25
2018-08-28T09:01:50.941Z,94198.80
2018-08-28T09:04:18.547Z,94197.83
2018-08-28T09:06:46.051Z,94199.60
2018-08-28T09:09:13.827Z,94191.71
2018-08-28T09:11:41.354Z,94184.22
2018-08-28T09:14:08.947Z,94190.75
2018-08-28T09:16:36.511Z,94189.03
2018-08-28T09:19:04.111Z,94188.74
2018-08-28T09:21:31.611Z,94186.14
2018-08-28T09:24:00.158Z,94190.48
2018-08-28T09:26:27.731Z,94187.36
2018-08-28T09:28:55.342Z,94186.31
2018-08-28T09:31:22.838Z,94179.28
2018-08-28T09:33:50.403Z,94178.36
2018-08-28T09:36:17.984Z,94183.37
2018-08-28T09:38:45.584Z,94180.34
2018-08-28T09:41:13.054Z,94174.79
2018-08-28T09:43:40.601Z,94179.00
2018-08-28T09:46:08.097Z,94171.31
2018-08-28T09:48:35.740Z,94170.50
2018-08-28T09:51:03.281Z,94167.12
2018-08-28T09:53:30.806Z,94170.63
2018-08-28T09:55:58.379Z,94173.94
2018-08-28T09:58:25.897Z,94165.55
2018-08-28T10:00:59.190Z,94169.72
2018-08-28T10:03:26.692Z,94167.85
2018-08-28T10:05:54.194Z,94165.05
2018-08-28T10:08:21.722Z,94162.81
2018-08-28T10:10:49.288Z,94167.69
2018-08-28T10:13:16.726Z,94158.84
2018-08-28T10:15:44.330Z,94165.23
2018-08-28T10:18:11.850Z,94157.00
2018-08-28T10:20:39.695Z,94159.91
2018-08-28T10:23:07.271Z,94158.41
2018-08-28T10:25:34.763Z,94158.06
2018-08-28T10:28:02.294Z,94155.45
2018-08-28T10:30:29.870Z,94157.39
2018-08-28T10:32:57.396Z,94157.92
2018-08-28T10:35:24.909Z,94160.95
2018-08-28T10:37:52.430Z,94154.25
2018-08-28T10:40:20.351Z,94154.64
2018-08-28T10:42:47.925Z,94152.66
2018-08-28T10:45:15.413Z,94152.27
2018-08-28T10:47:42.927Z,94151.17
2018-08-28T10:50:10.422Z,94152.63
2018-08-28T10:52:37.950Z,94143.65
2018-08-28T10:55:05.497Z,94145.42
2018-08-28T10:57:33.006Z,94138.41
2018-08-28T11:00:00.498Z,94144.94
2018-08-28T11:02:28.085Z,94136.78
2018-08-28T11:04:55.699Z,94130.57
2018-08-28T11:07:23.209Z,94128.27
2018-08-28T11:09:50.704Z,94129.48
2018-08-28T11:12:18.174Z,94122.72
2018-08-28T11:14:45.746Z,94122.09
2018-08-28T11:17:13.286Z,94117.91
2018-08-28T11:19:40.855Z,94125.98
2018-08-28T11:22:08.426Z,94123.77
2018-08-28T11:24:36.045Z,94120.83
2018-08-28T11:27:03.552Z,94121.36
2018-08-28T11:29:31.099Z,94119.38
2018-08-28T11:31:58.626Z,94118.77
2018-08-28T11:34:26.186Z,94118.12
2018-08-28T11:36:54.150Z,94114.05
2018-08-28T11:39:21.607Z,94101.03
2018-08-28T11:41:49.117Z,94104.53
2018-08-28T11:44:16.639Z,94102.93
2018-08-28T11:46:44.120Z,94105.76
2018-08-28T11:49:11.748Z,94104.42
2018-08-28T11:51:39.308Z,94101.09
2018-08-28T11:54:07.042Z,94101.77
2018-08-28T11:56:34.652Z,94103.38
2018-08-28T11:59:02.138Z,94096.20
2018-08-28T12:01:29.654Z,94102.11
2018-08-28T12:03:57.151Z,94097.33
2018-08-28T12:06:24.649Z,94099.91
2018-08-28T12:08:52.126Z,94103.94
2018-08-28T12:11:19.613Z,94100.67
2018-08-28T12:13:47.100Z,94099.41
2018-08-28T12:16:14.623Z,94093.63
2018-08-28T12:18:42.158Z,94093.45
2018-08-28T12:21:09.727Z,94081.61
2018-08-28T12:23:37.271Z,94086.41
2018-08-28T12:26:04.761Z,94079.53
2018-08-28T12:28:32.322Z,94083.42
2018-08-28T12:30:59.823Z,94083.42
2018-08-28T12:33:27.276Z,94074.78
2018-08-28T12:35:55.143Z,94073.66
2018-08-28T12:38:22.679Z,94070.09
2018-08-28T12:40:50.191Z,94066.70
2018-08-28T12:43:17.970Z,94069.61
2018-08-28T12:45:45.518Z,94067.09
2018-08-28T12:48:12.986Z,94060.74
2018-08-28T12:50:40.500Z,94059.91
2018-08-28T12:53:08.029Z,94061.59
2018-08-28T12:55:35.614Z,94059.27
2018-08-28T12:58:03.290Z,94052.42
2018-08-28T13:00:30.918Z,94059.16
2018-08-28T13:02:58.330Z,94052.51
2018-08-28T13:05:26.035Z,94049.91
2018-08-28T13:07:53.655Z,94047.62
2018-08-28T13:10:21.210Z,94051.45
2018-08-28T13:12:48.751Z,94046.39
2018-08-28T13:15:16.208Z,94043.45
2018-08-28T13:17:43.725Z,94043.78
2018-08-28T13:20:11.306Z,94035.62
2018-08-28T13:22:38.819Z,94035.36
2018-08-28T13:25:06.775Z,94033.19
2018-08-28T13:27:34.291Z,94029.70
2018-08-28T13:30:01.858Z,94034.45
2018-08-28T13:32:29.342Z,94036.31
2018-08-28T13:34:57.842Z,94025.84
2018-08-28T13:37:25.339Z,94028.62
2018-08-28T13:39:52.839Z,94029.09
2018-08-28T13:42:20.388Z,94025.83
2018-08-28T13:44:47.891Z,94024.06
2018-08-28T13:47:16.670Z,94023.83
2018-08-28T13:49:44.132Z,94022.97
2018-08-28T13:52:11.746Z,94015.38
2018-08-28T13:54:39.262Z,94018.52
2018-08-28T13:57:06.778Z,94017.78
2018-08-28T13:59:34.293Z,94009.84
2018-08-28T14:02:01.792Z,94011.26
2018-08-28T14:04:29.307Z,94013.11
2018-08-28T14:06:56.814Z,94018.42
2018-08-28T14:09:24.426Z,94016.84
2018-08-28T14:11:51.941Z,94011.69
2018-08-28T14:14:19.463Z,94016.58
2018-08-28T14:16:46.963Z,94008.51
2018-08-28T14:19:14.491Z,94000.47
2018-08-28T14:21:42.051Z,94001.58
2018-08-28T14:24:09.697Z,93997.09
2018-08-28T14:26:37.250Z,93998.77
2018-08-28T14:29:04.820Z,93997.34
2018-08-28T14:31:32.369Z,93992.45
2018-08-28T14:33:59.923Z,93993.41
2018-08-28T14:36:27.570Z,93991.44
2018-08-28T14:38:55.340Z,93988.63
2018-08-28T14:41:22.848Z,93984.98
2018-08-28T14:43:50.379Z,93985.44
2018-08-28T14:46:17.894Z,93985.48
2018-08-28T14:48:45.602Z,93980.25
2018-08-28T14:51:13.062Z,93977.09
2018-08-28T14:53:42.178Z,93976.91
2018-08-28T14:56:09.955Z,93976.73
2018-08-28T14:58:37.462Z,93979.17
2018-08-28T15:01:05.025Z,93974.77
2018-08-28T15:03:32.911Z,93980.93
2018-08-28T15:06:00.412Z,93972.12
2018-08-28T15:08:28.298Z,93969.75
2018-08-28T15:10:55.842Z,93969.83
2018-08-28T15:13:23.353Z,93970.16
2018-08-28T15:15:50.919Z,93968.59
2018-08-28T15:18:18.426Z,93967.03
2018-08-28T15:20:45.964Z,93965.81
2018-08-28T15:23:13.441Z,93966.56
2018-08-28T15:25:41.095Z,93974.27
2018-08-28T15:28:08.578Z,93969.38
2018-08-28T15:30:36.162Z,93960.00
2018-08-28T15:33:03.660Z,93963.98
2018-08-28T15:35:31.175Z,93956.65
2018-08-28T15:37:58.700Z,93962.38
2018-08-28T15:40:26.270Z,93961.34
2018-08-28T15:42:53.833Z,93955.95
2018-08-28T15:45:21.381Z,93957.13
2018-08-28T15:47:48.884Z,93957.50
2018-08-28T15:50:16.469Z,93955.50
2018-08-28T15:52:43.960Z,93950.18
2018-08-28T15:55:11.463Z,93948.47
2018-08-28T15:57:39.046Z,93946.09
2018-08-28T16:00:06.666Z,93948.41
2018-08-28T16:02:34.247Z,93957.06
2018-08-28T16:05:01.855Z,93951.77
2018-08-28T16:07:29.350Z,93950.17
2018-08-28T16:09:56.878Z,93953.27
2018-08-28T16:12:24.474Z,93951.11
2018-08-28T16:14:52.069Z,93955.78
2018-08-28T16:17:19.705Z,93954.70
2018-08-28T16:19:47.193Z,93951.48
2018-08-28T16:22:18.983Z,93954.75
2018-08-28T16:24:46.474Z,93942.98
2018-08-28T16:27:14.024Z,93951.58
2018-08-28T16:29:41.666Z,93950.51
2018-08-28T16:32:09.199Z,93948.67
2018-08-28T16:34:36.721Z,93941.95
2018-08-28T16:37:04.207Z,93949.47
2018-08-28T16:39:31.835Z,93943.34
2018-08-28T16:41:59.431Z,93951.70
2018-08-28T16:44:26.938Z,93944.78
2018-08-28T16:46:54.611Z,93947.99
2018-08-28T16:49:22.227Z,93944.23
2018-08-28T16:51:49.846Z,93938.95
2018-08-28T16:54:17.450Z,93935.45
2018-08-28T16:56:44.938Z,93930.16
2018-08-28T16:59:12.461Z,93934.45
2018-08-28T17:01:40.196Z,93933.65
2018-08-28T17:04:07.743Z,93932.23
2018-08-28T17:06:35.228Z,93928.28
2018-08-28T17:09:04.432Z,93924.06
2018-08-28T17:11:31.947Z,93925.06
2018-08-28T17:13:59.446Z,93932.04
2018-08-28T17:16:27.004Z,93938.25
2018-08-28T17:18:54.623Z,93931.34
2018-08-28T17:21:23.119Z,93925.17
2018-08-28T17:23:50.735Z,93923.34
2018-08-28T17:26:18.205Z,93922.59
2018-08-28T17:28:45.715Z,93926.91
2018-08-28T17:31:13.515Z,93923.69
2018-08-28T17:33:41.060Z,93936.87
2018-08-28T17:36:08.710Z,93932.87
2018-08-28T17:38:36.231Z,93937.95
2018-08-28T17:41:03.814Z,93937.72
2018-08-28T17:43:31.487Z,93944.70
2018-08-28T17:45:58.982Z,93940.19
2018-08-28T17:48:26.518Z,93939.94
2018-08-28T17:50:54.135Z,93941.53
2018-08-28T17:53:21.644Z,93948.48
2018-08-28T17:55:49.162Z,93944.20
2018-08-28T17:58:16.676Z,93944.48
2018-08-28T18:00:44.228Z,93943.17
2018-08-28T18:03:11.740Z,93945.29
2018-08-28T18:05:39.390Z,93940.75
2018-08-28T18:08:06.964Z,93944.22
2018-08-28T18:10:34.655Z,93942.62
2018-08-28T18:13:02.270Z,93952.77
2018-08-28T18:15:29.962Z,93947.96
2018-08-28T18:17:57.507Z,93957.06
2018-08-28T18:20:25.183Z,93952.52
2018-08-28T18:22:53.026Z,93947.97
2018-08-28T18:25:20.540Z,93949.55
2018-08-28T18:27:48.042Z,93946.88
2018-08-28T18:30:15.710Z,93939.95
2018-08-28T18:32:44.239Z,93948.21
2018-08-28T18:35:11.904Z,93947.94
2018-08-28T18:37:39.571Z,93950.02
2018-08-28T18:40:07.182Z,93946.03
2018-08-28T18:42:34.717Z,93950.80
2018-08-28T18:45:02.358Z,93944.09
2018-08-28T18:47:29.906Z,93953.14
2018-08-28T18:49:57.569Z,93951.00
2018-08-28T18:52:25.097Z,93954.27
2018-08-28T18:54:52.767Z,93952.64
2018-08-28T18:57:20.433Z,93956.34
2018-08-28T18:59:47.970Z,93950.84
2018-08-28T19:02:15.507Z,93949.23
2018-08-28T19:04:43.020Z,93950.55
2018-08-28T19:07:10.569Z,93952.89
2018-08-28T19:09:38.267Z,93949.64
2018-08-28T19:12:05.785Z,93943.69
2018-08-28T19:14:33.429Z,93946.86
2018-08-28T19:17:01.071Z,93945.94
2018-08-28T19:19:28.548Z,93944.32
2018-08-28T19:21:56.062Z,93943.70
2018-08-28T19:24:23.639Z,93945.45
2018-08-28T19:26:51.282Z,93945.42
2018-08-28T19:29:18.840Z,93941.55
2018-08-28T19:31:46.442Z,93935.66
2018-08-28T19:34:13.909Z,93929.75
2018-08-28T19:36:41.526Z,93931.01
2018-08-28T19:39:09.054Z,93932.98
2018-08-28T19:41:36.768Z,93924.47
2018-08-28T19:44:04.303Z,93936.06
2018-08-28T19:46:31.800Z,93935.85
2018-08-28T19:48:59.326Z,93936.45
2018-08-28T19:51:26.823Z,93939.38
2018-08-28T19:53:54.391Z,93945.76
2018-08-28T19:56:22.067Z,93945.44
2018-08-28T19:58:49.550Z,93943.57
2018-08-28T20:01:17.076Z,93943.29
2018-08-28T20:03:45.288Z,93936.58
2018-08-28T20:06:13.197Z,93936.49
2018-08-28T20:08:40.857Z,93944.69
2018-08-28T20:11:08.366Z,93941.50
2018-08-28T20:13:35.893Z,93934.55
2018-08-28T20:16:03.414Z,93937.98
2018-08-28T20:18:30.987Z,93935.78
2018-08-28T20:20:58.537Z,93936.27
2018-08-28T20:23:26.058Z,93935.09
2018-08-28T20:25:54.611Z,93934.66
2018-08-28T20:28:22.101Z,93928.80
2018-08-28T20:30:49.591Z,93931.63
2018-08-28T20:33:17.234Z,93929.77
2018-08-28T20:35:44.884Z,93930.53
2018-08-28T20:38:12.412Z,93929.97
2018-08-28T20:40:39.942Z,93925.72
2018-08-28T20:43:07.444Z,93921.77
2018-08-28T20:45:34.979Z,93917.97
2018-08-28T20:48:02.536Z,93919.83
2018-08-28T20:50:30.078Z,93913.16
2018-08-28T20:52:57.592Z,93909.45
2018-08-28T20:55:25.391Z,93908.40
2018-08-28T20:57:53.337Z,93903.12
2018-08-28T21:00:20.973Z,93903.12
2018-08-28T21:02:48.493Z,93901.50
2018-08-28T21:05:20.659Z,93904.61
2018-08-28T21:07:48.502Z,93896.33
2018-08-28T21:10:16.219Z,93899.27
2018-08-28T21:12:44.042Z,93895.08
2018-08-28T21:15:11.699Z,93900.41
2018-08-28T21:17:39.205Z,93898.52
2018-08-28T21:20:07.126Z,93888.62
2018-08-28T21:22:34.620Z,93890.14
2018-08-28T21:25:02.652Z,93886.15
2018-08-28T21:27:30.275Z,93888.42
2018-08-28T21:29:57.794Z,93884.81
2018-08-28T21:32:25.455Z,93889.85
2018-08-28T21:34:52.982Z,93886.05
2018-08-28T21:37:20.586Z,93884.95
2018-08-28T21:39:48.050Z,93888.90
2018-08-28T21:42:15.620Z,93884.14
2018-08-28T21:44:43.077Z,93883.80
2018-08-28T21:47:10.734Z,93882.70
2018-08-28T21:49:38.372Z,93885.08
2018-08-28T21:52:05.945Z,93874.43
2018-08-28T21:54:33.726Z,93879.75
2018-08-28T21:57:01.341Z,93878.26
2018-08-28T21:59:28.955Z,93882.30
2018-08-28T22:01:56.479Z,93883.30
2018-08-28T22:04:23.978Z,93878.17
2018-08-28T22:07:55.184Z,93867.80
2018-08-28T22:10:22.691Z,93859.70
2018-08-28T22:12:50.182Z,93860.39
2018-08-28T22:15:17.682Z,93851.09
2018-08-28T22:17:45.160Z,93853.38
2018-08-28T22:20:12.655Z,93859.59
2018-08-28T22:22:40.278Z,93854.19
2018-08-28T22:25:07.866Z,93845.05
2018-08-28T22:27:35.612Z,93851.52
2018-08-28T22:30:03.614Z,93842.84
2018-08-28T22:32:31.282Z,93840.72
2018-08-28T22:34:58.778Z,93848.70
2018-08-28T22:37:26.290Z,93849.27
2018-08-28T22:39:53.951Z,93845.84
2018-08-28T22:42:21.621Z,93839.39
2018-08-28T22:44:49.255Z,93828.50
2018-08-28T22:47:16.726Z,93836.73
2018-08-28T22:49:44.209Z,93833.72
2018-08-28T22:52:11.891Z,93840.02
2018-08-28T22:54:39.499Z,93835.78
2018-08-28T22:57:06.999Z,93838.44
2018-08-28T22:59:34.686Z,93836.54
2018-08-28T23:02:02.579Z,93843.69
2018-08-28T23:04:30.375Z,93842.08
2018-08-28T23:06:57.901Z,93837.73
2018-08-28T23:09:25.500Z,93838.55
2018-08-28T23:11:53.031Z,93835.55
2018-08-28T23:14:20.630Z,93834.44
2018-08-28T23:16:48.253Z,93838.31
2018-08-28T23:19:16.497Z,93838.00
2018-08-28T23:21:44.037Z,93842.56
2018-08-28T23:24:11.528Z,93844.94
2018-08-28T23:26:38.977Z,93843.72
2018-08-28T23:29:06.514Z,93849.93
2018-08-28T23:31:34.053Z,93853.02
2018-08-28T23:34:01.618Z,93852.91
2018-08-28T23:36:29.210Z,93857.84
2018-08-28T23:38:56.711Z,93850.36
2018-08-28T23:41:24.426Z,93855.42
2018-08-28T23:43:51.950Z,93846.80
2018-08-28T23:46:19.477Z,93843.32
2018-08-28T23:48:46.968Z,93840.88
2018-08-28T23:51:14.470Z,93832.47
2018-08-28T23:53:41.958Z,93842.20
2018-08-28T23:56:09.494Z,93842.68
2018-08-28T23:58:37.030Z,93847.70
